Terminal Aerodrome Forecast
Issued by NWS Shreveport, LA

Home | Current Version | Previous Version | Text Only | Print | Product List | Glossary On
Versions: 1 2 3 4 5 6 7 8 9 10 11 12
000
FTUS44 KSHV 252330
TAFTXK
TAF
KTXK 252330Z 2600/2624 VRB03KT P6SM SKC
     FM261500 13008KT P6SM FEW100
     FM262100 15009KT P6SM SCT050 BKN100=

USA.gov is the U.S. government's official web portal to all federal, state and local government web resources and services.